createdAt,value
2019-05-06T00:01:24.628Z,6.70
2019-05-06T00:03:54.166Z,7.03
2019-05-06T00:06:24.164Z,6.63
2019-05-06T00:08:55.307Z,7.23
2019-05-06T00:11:26.134Z,6.50
2019-05-06T00:13:55.576Z,6.80
2019-05-06T00:16:24.831Z,6.30
2019-05-06T00:18:54.250Z,6.93
2019-05-06T00:21:24.447Z,7.13
2019-05-06T00:23:54.669Z,6.97
2019-05-06T00:26:34.526Z,7.37
2019-05-06T00:29:05.621Z,7.00
2019-05-06T00:31:34.725Z,6.70
2019-05-06T00:34:04.364Z,6.83
2019-05-06T00:36:34.514Z,7.30
2019-05-06T00:39:05.116Z,7.07
2019-05-06T00:41:36.429Z,6.70
2019-05-06T00:44:05.116Z,7.33
2019-05-06T00:46:34.447Z,7.50
2019-05-06T00:49:03.892Z,6.97
2019-05-06T00:51:33.808Z,7.27
2019-05-06T00:54:04.873Z,7.40
2019-05-06T00:56:34.211Z,7.03
2019-05-06T00:59:03.747Z,7.20
2019-05-06T01:01:34.444Z,6.93
2019-05-06T01:04:04.840Z,6.83
2019-05-06T01:06:34.373Z,7.73
2019-05-06T01:09:04.562Z,7.53
2019-05-06T01:11:34.608Z,6.07
2019-05-06T01:14:05.382Z,5.87
2019-05-06T01:16:34.608Z,6.10
2019-05-06T01:19:04.751Z,5.60
2019-05-06T01:21:34.336Z,6.20
2019-05-06T01:24:04.016Z,6.60
2019-05-06T01:26:33.763Z,6.67
2019-05-06T01:29:03.887Z,7.33
2019-05-06T01:31:40.581Z,6.73
2019-05-06T01:34:04.290Z,6.47
2019-05-06T01:36:34.310Z,5.87
2019-05-06T01:39:13.767Z,6.67
2019-05-06T01:41:53.633Z,8.10
2019-05-06T01:44:24.402Z,8.80
2019-05-06T01:46:54.168Z,8.80
2019-05-06T01:49:24.521Z,9.50
2019-05-06T01:51:54.562Z,8.70
2019-05-06T01:54:24.937Z,9.03
2019-05-06T01:56:54.279Z,8.87
2019-05-06T01:59:24.644Z,9.50
2019-05-06T02:02:00.553Z,9.23
2019-05-06T02:04:24.520Z,8.70
2019-05-06T02:06:55.378Z,9.03
2019-05-06T02:09:24.843Z,9.43
2019-05-06T02:11:53.872Z,8.93
2019-05-06T02:14:24.463Z,8.97
2019-05-06T02:16:54.552Z,8.50
2019-05-06T02:19:24.266Z,8.83
2019-05-06T02:21:55.079Z,9.43
2019-05-06T02:24:28.544Z,8.97
2019-05-06T02:26:57.608Z,8.77
2019-05-06T02:29:40.350Z,8.70
2019-05-06T02:32:31.181Z,8.80
2019-05-06T02:35:14.935Z,9.00
2019-05-06T02:37:46.457Z,9.47
2019-05-06T02:40:27.932Z,9.13
2019-05-06T02:42:57.056Z,8.37
2019-05-06T02:45:26.019Z,9.53
2019-05-06T02:48:04.398Z,10.03
2019-05-06T02:50:46.765Z,10.17
2019-05-06T02:53:17.371Z,9.23
2019-05-06T02:55:46.031Z,8.90
2019-05-06T02:58:15.112Z,8.67
2019-05-06T03:00:44.333Z,9.20
2019-05-06T03:03:14.184Z,8.97
2019-05-06T03:05:44.170Z,9.60
2019-05-06T03:08:13.736Z,9.33
2019-05-06T03:10:44.183Z,9.30
2019-05-06T03:13:14.176Z,9.93
2019-05-06T03:15:43.811Z,9.30
2019-05-06T03:18:14.779Z,8.90
2019-05-06T03:20:59.082Z,9.40
2019-05-06T03:23:34.996Z,9.73
2019-05-06T03:26:06.402Z,9.47
2019-05-06T03:28:33.963Z,9.87
2019-05-06T03:31:06.998Z,9.70
2019-05-06T03:33:50.549Z,10.23
2019-05-06T03:36:15.015Z,9.40
2019-05-06T03:38:34.412Z,9.63
2019-05-06T03:41:03.410Z,9.93
2019-05-06T03:43:33.787Z,10.53
2019-05-06T03:46:22.955Z,10.00
2019-05-06T03:49:04.110Z,9.53
2019-05-06T03:51:34.187Z,10.30
2019-05-06T03:54:04.206Z,9.57
2019-05-06T03:56:33.981Z,9.73
2019-05-06T03:59:04.441Z,10.07
2019-05-06T04:01:33.764Z,9.87
2019-05-06T04:04:03.673Z,9.53
2019-05-06T04:06:33.524Z,10.43
2019-05-06T04:09:05.109Z,9.93
2019-05-06T04:11:36.474Z,9.70
2019-05-06T04:14:06.874Z,9.10
2019-05-06T04:16:56.238Z,9.73
2019-05-06T04:19:27.065Z,8.27
2019-05-06T04:22:03.496Z,8.87
2019-05-06T04:24:48.849Z,8.90
2019-05-06T04:27:28.040Z,9.60
2019-05-06T04:29:57.315Z,9.10
2019-05-06T04:32:26.225Z,8.07
2019-05-06T04:34:55.013Z,9.00
2019-05-06T04:37:24.299Z,8.60
2019-05-06T04:39:53.697Z,8.70
2019-05-06T04:42:26.535Z,8.63
2019-05-06T04:44:53.642Z,8.77
2019-05-06T04:47:24.200Z,8.53
2019-05-06T04:49:53.389Z,8.00
2019-05-06T04:52:25.922Z,8.77
2019-05-06T04:54:53.402Z,8.37
2019-05-06T04:57:23.795Z,8.83
2019-05-06T04:59:54.240Z,7.80
2019-05-06T05:02:23.472Z,8.50
2019-05-06T05:04:53.227Z,8.77
2019-05-06T05:07:22.579Z,8.10
2019-05-06T05:09:53.756Z,9.03
2019-05-06T05:12:30.134Z,8.70
2019-05-06T05:15:03.263Z,8.50
2019-05-06T05:17:37.151Z,9.10
2019-05-06T05:20:07.863Z,8.70
2019-05-06T05:22:37.047Z,8.57
2019-05-06T05:25:06.883Z,8.67
2019-05-06T05:27:36.136Z,8.67
2019-05-06T05:30:09.062Z,8.40
2019-05-06T05:32:42.811Z,7.63
2019-05-06T05:35:12.687Z,8.87
2019-05-06T05:37:42.618Z,8.20
2019-05-06T05:40:13.440Z,8.00
2019-05-06T05:42:59.920Z,8.03
2019-05-06T05:45:29.521Z,8.03
2019-05-06T05:48:00.449Z,8.20
2019-05-06T05:50:37.243Z,7.87
2019-05-06T05:53:06.030Z,8.60
2019-05-06T05:55:35.085Z,7.90
2019-05-06T05:58:04.430Z,8.17
2019-05-06T06:00:36.195Z,7.93
2019-05-06T06:03:07.156Z,7.97
2019-05-06T06:05:39.603Z,8.53
2019-05-06T06:08:08.424Z,8.23
2019-05-06T06:10:42.615Z,8.80
2019-05-06T06:13:12.740Z,8.57
2019-05-06T06:15:52.027Z,7.97
2019-05-06T06:18:24.186Z,7.70
2019-05-06T06:20:55.716Z,8.63
2019-05-06T06:23:26.166Z,8.07
2019-05-06T06:25:55.154Z,8.20
2019-05-06T06:28:24.349Z,8.33
2019-05-06T06:31:03.015Z,8.67
2019-05-06T06:33:33.021Z,8.70
2019-05-06T06:36:06.885Z,9.13
2019-05-06T06:38:46.235Z,8.67
2019-05-06T06:41:15.121Z,8.63
2019-05-06T06:43:45.790Z,8.70
2019-05-06T06:46:14.626Z,8.40
2019-05-06T06:48:43.705Z,8.67
2019-05-06T06:51:12.811Z,8.77
2019-05-06T06:53:42.140Z,8.87
2019-05-06T06:56:28.388Z,8.10
2019-05-06T06:59:03.086Z,8.83
2019-05-06T07:01:42.328Z,8.43
2019-05-06T07:04:13.519Z,9.07
2019-05-06T07:06:44.625Z,8.53
2019-05-06T07:09:13.643Z,8.63
2019-05-06T07:11:42.906Z,8.30
2019-05-06T07:14:13.593Z,8.43
2019-05-06T07:16:43.018Z,8.00
2019-05-06T07:19:13.724Z,6.17
2019-05-06T07:21:53.344Z,6.40
2019-05-06T07:24:22.907Z,5.90
2019-05-06T07:26:54.012Z,5.30
2019-05-06T07:29:26.306Z,5.27
2019-05-06T07:31:53.588Z,5.47
2019-05-06T07:34:22.861Z,5.80
2019-05-06T07:36:52.644Z,5.40
2019-05-06T07:39:24.031Z,5.40
2019-05-06T07:41:57.353Z,5.27
2019-05-06T07:44:36.905Z,5.37
2019-05-06T07:47:13.290Z,4.53
2019-05-06T07:49:43.105Z,4.20
2019-05-06T07:52:12.333Z,4.10
2019-05-06T07:54:42.389Z,4.30
2019-05-06T07:57:12.772Z,4.03
2019-05-06T07:59:42.917Z,3.57
2019-05-06T08:02:13.067Z,3.63
2019-05-06T08:04:42.326Z,3.27
2019-05-06T08:07:12.619Z,3.20
2019-05-06T08:09:42.281Z,3.47
2019-05-06T08:12:12.395Z,4.10
2019-05-06T08:14:42.909Z,3.77
2019-05-06T08:17:15.683Z,3.87
2019-05-06T08:19:44.665Z,3.27
2019-05-06T08:22:15.085Z,3.30
2019-05-06T08:24:44.292Z,2.80
2019-05-06T08:27:13.292Z,3.50
2019-05-06T08:29:42.519Z,2.70
2019-05-06T08:32:12.495Z,3.50
2019-05-06T08:34:42.173Z,3.10
2019-05-06T08:37:12.819Z,2.70
2019-05-06T08:39:45.846Z,2.30
2019-05-06T08:42:13.522Z,2.60
2019-05-06T08:44:42.834Z,2.57
2019-05-06T08:47:13.301Z,2.60
2019-05-06T08:50:02.360Z,2.00
2019-05-06T08:52:32.887Z,1.53
2019-05-06T08:55:02.924Z,1.90
2019-05-06T08:57:32.523Z,1.90
2019-05-06T09:00:03.476Z,2.00
2019-05-06T09:02:32.420Z,1.90
2019-05-06T09:05:02.916Z,1.90
2019-05-06T09:07:32.169Z,1.60
2019-05-06T09:10:02.492Z,1.70
2019-05-06T09:12:32.917Z,1.67
2019-05-06T09:15:03.570Z,1.60
2019-05-06T09:17:33.067Z,1.87
2019-05-06T09:20:02.629Z,1.70
2019-05-06T09:22:32.632Z,1.63
2019-05-06T09:25:02.470Z,2.33
2019-05-06T09:27:48.663Z,1.77
2019-05-06T09:30:30.256Z,1.97
2019-05-06T09:32:59.039Z,1.87
2019-05-06T09:35:27.931Z,2.33
2019-05-06T09:37:56.958Z,2.17
2019-05-06T09:40:26.107Z,1.97
2019-05-06T09:42:54.888Z,1.70
2019-05-06T09:45:23.773Z,1.43
2019-05-06T09:48:12.887Z,1.67
2019-05-06T09:50:46.302Z,1.77
2019-05-06T09:53:15.375Z,2.60
2019-05-06T09:56:03.309Z,2.30
2019-05-06T09:58:34.473Z,2.40
2019-05-06T10:01:04.409Z,2.10
2019-05-06T10:03:33.492Z,2.80
2019-05-06T10:06:02.842Z,4.50
2019-05-06T10:08:32.294Z,2.30
2019-05-06T10:11:03.177Z,2.07
2019-05-06T10:13:32.718Z,2.47
2019-05-06T10:16:03.030Z,2.20
2019-05-06T10:18:32.681Z,2.27
2019-05-06T10:21:01.661Z,2.20
2019-05-06T10:23:32.633Z,9.37
2019-05-06T10:26:04.550Z,3.27
2019-05-06T10:28:33.601Z,2.43
2019-05-06T10:31:04.586Z,2.30
2019-05-06T10:33:33.680Z,2.03
2019-05-06T10:36:04.210Z,2.20
2019-05-06T10:38:42.388Z,1.87
2019-05-06T10:41:14.682Z,2.07
2019-05-06T10:44:06.301Z,1.93
2019-05-06T10:46:35.157Z,2.20
2019-05-06T10:49:04.177Z,2.43
2019-05-06T10:51:42.620Z,1.70
2019-05-06T10:54:12.281Z,1.97
2019-05-06T10:56:52.937Z,1.90
2019-05-06T10:59:15.107Z,1.97
2019-05-06T11:01:45.520Z,2.10
2019-05-06T11:04:14.570Z,2.30
2019-05-06T11:06:43.609Z,1.90
2019-05-06T11:09:13.573Z,2.47
2019-05-06T11:11:42.878Z,2.50
2019-05-06T11:14:12.704Z,2.60
2019-05-06T11:16:42.028Z,2.30
2019-05-06T11:19:13.124Z,1.83
2019-05-06T11:21:42.212Z,2.07
2019-05-06T11:24:12.254Z,2.47
2019-05-06T11:26:42.992Z,2.07
2019-05-06T11:29:13.330Z,2.30
2019-05-06T11:31:58.624Z,2.93
2019-05-06T11:34:29.170Z,2.63
2019-05-06T11:37:02.505Z,2.73
2019-05-06T11:39:32.227Z,1.93
2019-05-06T11:42:22.885Z,2.10
2019-05-06T11:44:32.331Z,2.20
2019-05-06T11:47:03.366Z,2.87
2019-05-06T11:49:32.620Z,2.30
2019-05-06T11:52:02.387Z,2.20
2019-05-06T11:54:33.602Z,2.03
2019-05-06T11:57:02.954Z,2.20
2019-05-06T11:59:32.000Z,2.10
2019-05-06T12:02:05.128Z,2.20
2019-05-06T12:04:33.827Z,2.20
2019-05-06T12:07:11.437Z,1.87
2019-05-06T12:09:35.472Z,2.20
2019-05-06T12:12:04.398Z,2.13
2019-05-06T12:14:33.255Z,2.70
2019-05-06T12:17:02.328Z,2.57
2019-05-06T12:19:32.396Z,2.73
2019-05-06T12:22:01.477Z,2.50
2019-05-06T12:24:30.440Z,2.20
2019-05-06T12:26:59.331Z,4.03
2019-05-06T12:29:28.319Z,3.50
2019-05-06T12:32:14.141Z,2.40
2019-05-06T12:34:43.294Z,1.77
2019-05-06T12:37:13.865Z,2.00
2019-05-06T12:39:44.662Z,2.10
2019-05-06T12:42:15.210Z,2.27
2019-05-06T12:44:45.791Z,2.13
2019-05-06T12:47:25.259Z,1.87
2019-05-06T12:49:54.453Z,1.80
2019-05-06T12:52:23.358Z,2.20
2019-05-06T12:54:54.339Z,1.77
2019-05-06T12:57:23.389Z,2.30
2019-05-06T12:59:53.238Z,1.90
2019-05-06T13:02:23.852Z,2.53
2019-05-06T13:05:00.227Z,2.07
2019-05-06T13:07:24.667Z,2.50
2019-05-06T13:09:53.432Z,2.30
2019-05-06T13:12:24.121Z,2.50
2019-05-06T13:14:53.164Z,2.30
2019-05-06T13:17:23.804Z,2.23
2019-05-06T13:19:52.779Z,2.10
2019-05-06T13:22:26.382Z,2.70
2019-05-06T13:24:55.193Z,2.40
2019-05-06T13:27:27.281Z,2.63
2019-05-06T13:29:54.687Z,2.97
2019-05-06T13:32:25.327Z,3.33
2019-05-06T13:34:54.201Z,3.93
2019-05-06T13:37:23.102Z,4.30
2019-05-06T13:39:52.930Z,3.40
2019-05-06T13:42:23.636Z,4.40
2019-05-06T13:44:52.733Z,4.40
2019-05-06T13:47:40.149Z,3.17
2019-05-06T13:50:12.194Z,4.47
2019-05-06T13:52:43.269Z,3.60
2019-05-06T13:55:12.963Z,3.23
2019-05-06T13:57:42.912Z,4.30
2019-05-06T14:00:13.670Z,3.53
2019-05-06T14:02:53.505Z,4.50
2019-05-06T14:05:22.771Z,3.30
2019-05-06T14:07:52.702Z,3.07
2019-05-06T14:10:22.288Z,3.20
2019-05-06T14:12:53.162Z,3.20
2019-05-06T14:15:23.195Z,3.47
2019-05-06T14:17:53.361Z,3.30
2019-05-06T14:20:22.739Z,3.13
2019-05-06T14:22:52.627Z,3.20
2019-05-06T14:25:33.203Z,3.50
2019-05-06T14:28:09.632Z,3.57
2019-05-06T14:30:40.106Z,3.70
2019-05-06T14:33:15.128Z,3.97
2019-05-06T14:35:43.024Z,3.97
2019-05-06T14:38:13.627Z,3.40
2019-05-06T14:41:04.369Z,4.03
2019-05-06T14:43:32.364Z,3.53
2019-05-06T14:46:00.860Z,3.70
2019-05-06T14:48:29.923Z,3.67
2019-05-06T14:50:58.870Z,3.40
2019-05-06T14:53:27.858Z,4.10
2019-05-06T14:55:58.392Z,3.80
2019-05-06T14:58:27.256Z,4.67
2019-05-06T15:00:56.650Z,6.30
2019-05-06T15:03:25.383Z,6.27
2019-05-06T15:05:54.328Z,4.80
2019-05-06T15:08:23.124Z,4.63
2019-05-06T15:10:51.911Z,3.27
2019-05-06T15:13:22.844Z,3.57
2019-05-06T15:15:52.207Z,3.27
2019-05-06T15:18:22.432Z,2.83
2019-05-06T15:20:53.137Z,3.00
2019-05-06T15:23:22.470Z,3.07
2019-05-06T15:25:52.463Z,3.10
2019-05-06T15:28:22.616Z,3.20
2019-05-06T15:31:12.346Z,3.00
2019-05-06T15:33:45.260Z,3.00
2019-05-06T15:36:19.180Z,2.93
2019-05-06T15:38:48.193Z,3.10
2019-05-06T15:41:17.632Z,3.70
2019-05-06T15:43:47.067Z,3.37
2019-05-06T15:46:15.870Z,4.23
2019-05-06T15:48:45.363Z,3.83
2019-05-06T15:51:14.367Z,3.73
2019-05-06T15:53:43.869Z,3.80
2019-05-06T15:56:13.096Z,3.83
2019-05-06T15:58:43.639Z,3.60
2019-05-06T16:01:14.461Z,3.47
2019-05-06T16:03:43.867Z,3.03
2019-05-06T16:06:12.964Z,3.80
2019-05-06T16:08:42.795Z,3.43
2019-05-06T16:11:14.374Z,4.63
2019-05-06T16:13:45.078Z,5.20
2019-05-06T16:16:13.684Z,2.93
2019-05-06T16:18:42.576Z,3.63
2019-05-06T16:21:11.706Z,3.30
2019-05-06T16:23:42.392Z,4.60
2019-05-06T16:26:12.337Z,3.67
2019-05-06T16:28:44.973Z,3.00
2019-05-06T16:31:13.277Z,3.20
2019-05-06T16:33:43.069Z,3.30
2019-05-06T16:36:13.195Z,3.93
2019-05-06T16:38:42.815Z,3.33
2019-05-06T16:41:15.668Z,3.53
2019-05-06T16:43:42.754Z,3.97
2019-05-06T16:46:12.673Z,3.57
2019-05-06T16:48:45.024Z,3.97
2019-05-06T16:51:12.613Z,4.97
2019-05-06T16:53:42.943Z,4.30
2019-05-06T16:56:22.647Z,4.50
2019-05-06T16:58:53.299Z,3.87
2019-05-06T17:01:22.588Z,3.80
2019-05-06T17:03:53.389Z,4.50
2019-05-06T17:06:26.720Z,3.67
2019-05-06T17:08:55.804Z,4.23
2019-05-06T17:11:30.418Z,5.93
2019-05-06T17:13:55.596Z,5.37
2019-05-06T17:16:24.701Z,7.40
2019-05-06T17:18:56.511Z,7.37
2019-05-06T17:21:24.238Z,7.10
2019-05-06T17:23:53.215Z,7.50
2019-05-06T17:26:22.611Z,7.67
2019-05-06T17:28:53.161Z,6.70
2019-05-06T17:31:42.460Z,6.90
2019-05-06T17:34:15.627Z,10.23
2019-05-06T17:36:46.436Z,13.80
2019-05-06T17:39:15.306Z,10.00
2019-05-06T17:41:48.590Z,7.10
2019-05-06T17:44:14.959Z,5.90
2019-05-06T17:46:54.253Z,5.53
2019-05-06T17:49:25.790Z,5.17
2019-05-06T17:51:57.054Z,5.10
2019-05-06T17:54:27.795Z,5.30
2019-05-06T17:56:57.525Z,5.47
2019-05-06T17:59:33.150Z,3.73
2019-05-06T18:01:59.127Z,3.23
2019-05-06T18:04:28.744Z,3.03
2019-05-06T18:06:57.878Z,4.47
2019-05-06T18:09:27.572Z,4.10
2019-05-06T18:11:59.330Z,2.83
2019-05-06T18:14:28.905Z,3.50
2019-05-06T18:17:03.693Z,4.90
2019-05-06T18:19:33.617Z,4.70
2019-05-06T18:22:03.053Z,4.60
2019-05-06T18:24:33.223Z,5.40
2019-05-06T18:27:04.974Z,5.67
2019-05-06T18:29:34.683Z,5.43
2019-05-06T18:32:04.062Z,5.67
2019-05-06T18:34:33.576Z,6.10
2019-05-06T18:37:04.153Z,5.87
2019-05-06T18:39:34.027Z,5.83
2019-05-06T18:42:15.535Z,6.87
2019-05-06T18:44:34.356Z,8.47
2019-05-06T18:47:03.223Z,7.93
2019-05-06T18:49:33.725Z,9.83
2019-05-06T18:52:05.204Z,12.37
2019-05-06T18:54:34.151Z,13.83
2019-05-06T18:57:04.964Z,18.93
2019-05-06T18:59:36.565Z,14.23
2019-05-06T19:02:04.232Z,12.17
2019-05-06T19:04:35.160Z,10.57
2019-05-06T19:07:10.540Z,9.70
2019-05-06T19:09:36.383Z,8.57
2019-05-06T19:12:05.412Z,6.50
2019-05-06T19:14:34.292Z,4.97
2019-05-06T19:17:03.242Z,4.43
2019-05-06T19:19:34.688Z,5.10
2019-05-06T19:22:02.975Z,5.40
2019-05-06T19:24:33.725Z,5.00
2019-05-06T19:27:02.857Z,5.27
2019-05-06T19:29:33.107Z,4.73
2019-05-06T19:32:02.958Z,5.27
2019-05-06T19:34:34.498Z,5.83
2019-05-06T19:37:02.692Z,5.40
2019-05-06T19:39:32.953Z,5.50
2019-05-06T19:42:03.924Z,5.27
2019-05-06T19:44:32.948Z,5.73
2019-05-06T19:47:02.538Z,5.80
2019-05-06T19:49:32.771Z,6.03
2019-05-06T19:52:03.134Z,5.43
2019-05-06T19:54:33.169Z,5.43
2019-05-06T19:57:02.831Z,5.57
2019-05-06T19:59:33.137Z,5.93
2019-05-06T20:02:05.029Z,6.17
2019-05-06T20:04:34.297Z,6.00
2019-05-06T20:07:04.806Z,6.30
2019-05-06T20:09:44.762Z,6.20
2019-05-06T20:12:15.469Z,6.07
2019-05-06T20:14:44.770Z,7.90
2019-05-06T20:17:14.132Z,7.30
2019-05-06T20:19:43.951Z,7.37
2019-05-06T20:22:15.966Z,8.10
2019-05-06T20:24:45.688Z,7.37
2019-05-06T20:27:14.675Z,6.97
2019-05-06T20:29:43.746Z,8.10
2019-05-06T20:32:13.572Z,7.80
2019-05-06T20:34:43.715Z,8.10
2019-05-06T20:37:13.265Z,8.40
2019-05-06T20:39:43.289Z,8.27
2019-05-06T20:42:13.016Z,8.53
2019-05-06T20:44:43.380Z,8.63
2019-05-06T20:47:13.232Z,8.30
2019-05-06T20:49:43.197Z,8.13
2019-05-06T20:52:12.609Z,8.13
2019-05-06T20:54:42.639Z,8.03
2019-05-06T20:57:12.425Z,7.43
2019-05-06T20:59:42.124Z,7.77
2019-05-06T21:02:12.420Z,8.50
2019-05-06T21:04:43.209Z,7.63
2019-05-06T21:07:12.496Z,6.97
2019-05-06T21:09:43.183Z,6.73
2019-05-06T21:12:12.780Z,6.87
2019-05-06T21:14:42.520Z,6.83
2019-05-06T21:17:12.367Z,7.20
2019-05-06T21:19:41.988Z,7.23
2019-05-06T21:22:13.254Z,7.30
2019-05-06T21:24:43.017Z,7.90
2019-05-06T21:27:12.477Z,7.57
2019-05-06T21:29:42.885Z,7.67
2019-05-06T21:32:12.180Z,8.40
2019-05-06T21:34:43.235Z,7.80
2019-05-06T21:37:12.739Z,8.43
2019-05-06T21:39:42.967Z,8.07
2019-05-06T21:42:12.432Z,7.83
2019-05-06T21:44:42.935Z,7.53
2019-05-06T21:47:12.529Z,8.10
2019-05-06T21:49:42.276Z,7.30
2019-05-06T21:52:13.025Z,7.43
2019-05-06T21:54:43.451Z,8.03
2019-05-06T21:57:12.718Z,8.10
2019-05-06T21:59:42.778Z,9.07
2019-05-06T22:02:13.828Z,8.40
2019-05-06T22:04:43.367Z,8.90
2019-05-06T22:07:12.427Z,8.57
2019-05-06T22:09:43.060Z,9.43
2019-05-06T22:12:12.359Z,9.47
2019-05-06T22:14:42.238Z,9.17
2019-05-06T22:17:13.947Z,9.90
2019-05-06T22:19:42.745Z,10.67
2019-05-06T22:22:14.621Z,10.07
2019-05-06T22:24:47.831Z,11.40
2019-05-06T22:27:16.951Z,10.90
2019-05-06T22:29:45.899Z,11.47
2019-05-06T22:32:15.106Z,9.90
2019-05-06T22:34:44.182Z,10.20
2019-05-06T22:37:13.115Z,9.63
2019-05-06T22:39:43.483Z,11.87
2019-05-06T22:42:12.584Z,10.53
2019-05-06T22:44:42.867Z,10.33
2019-05-06T22:47:12.460Z,10.30
2019-05-06T22:49:41.424Z,9.43
2019-05-06T22:52:12.408Z,9.27
2019-05-06T22:54:40.676Z,8.77
2019-05-06T22:57:11.908Z,8.53
2019-05-06T22:59:40.054Z,8.13
2019-05-06T23:02:13.009Z,7.77
2019-05-06T23:04:44.369Z,8.20
2019-05-06T23:07:14.562Z,8.33
2019-05-06T23:09:43.365Z,7.93
2019-05-06T23:12:12.408Z,8.83
2019-05-06T23:14:41.966Z,8.83
2019-05-06T23:17:12.704Z,7.93
2019-05-06T23:19:42.954Z,9.13
2019-05-06T23:22:12.247Z,8.30
2019-05-06T23:24:41.199Z,8.80
2019-05-06T23:27:10.087Z,8.27
2019-05-06T23:29:38.976Z,8.50
2019-05-06T23:32:07.772Z,8.00
2019-05-06T23:34:37.062Z,8.50
2019-05-06T23:37:13.034Z,9.07
2019-05-06T23:40:19.500Z,8.87
2019-05-06T23:43:25.524Z,8.23
2019-05-06T23:46:32.386Z,8.27
2019-05-06T23:49:38.067Z,8.07
2019-05-06T23:52:43.657Z,8.80
2019-05-06T23:55:49.417Z,9.00
2019-05-06T23:58:17.642Z,7.80
